MSC Poh Lin — H8FC — position and weather

sailwx.info

Track history (hours):
 
Tides and Currents Weather Stations Pressure Air Temp Water Temp Dewpoint Dewpoint Depression Visibility Wind Speed Wind Dir Waves Ship Positions

MSC Poh Lin

Last reported at 2014-Dec-20 02:08 UTC. Time now 2014-Dec-20 03:44 UTC.
Position N 36°54' W 123°18'.

Length 294 m; draft 9.8 m.

Type: Ship (hazmat cat A). MMSI: 357405000.

Date/timePositionNaut miles runAvg speedWind from/ knotsBaromVisibWave heightAir tempDewpointWater temp
2014-Dec-20 02:08N 36°54' W 123°18'1017.2
2014-Dec-20 01:33N 36°45' W 123°12'19817.7
2014-Dec-19 14:21N 33°55' W 121°07'14612.3
2014-Dec-19 02:28N 33°42' W 118°11'5 5.1
2014-Dec-19 01:33N 33°46' W 118°14'0 0.2
2014-Dec-19 00:32N 33°46' W 118°14'0 0.0
2014-Dec-18 23:32N 33°46' W 118°14'0 0.0
2014-Dec-18 22:32N 33°46' W 118°14'0 0.0
2014-Dec-18 21:32N 33°46' W 118°14'0 0.0
2014-Dec-18 20:32N 33°46' W 118°14'0 0.0
2014-Dec-18 19:32N 33°46' W 118°14'0 0.0
2014-Dec-18 18:32N 33°46' W 118°14'0 0.0
2014-Dec-18 17:32N 33°46' W 118°14'0 0.0
2014-Dec-18 16:32N 33°46' W 118°14'0 0.0
2014-Dec-18 15:32N 33°46' W 118°14'0 0.0
2014-Dec-18 14:32N 33°46' W 118°14'0 0.0
2014-Dec-18 13:29N 33°46' W 118°14'0 0.0
2014-Dec-18 12:32N 33°46' W 118°14'0 0.0
2014-Dec-18 11:32N 33°46' W 118°14'0 0.0
2014-Dec-18 10:32N 33°46' W 118°14'0 0.0
2014-Dec-18 09:32N 33°46' W 118°14'0 0.0
2014-Dec-18 08:32N 33°46' W 118°14'0 0.0
2014-Dec-18 07:32N 33°46' W 118°14'0 0.0
2014-Dec-18 06:32N 33°46' W 118°14'0 0.0
2014-Dec-18 05:32N 33°46' W 118°14'0 0.0
2014-Dec-18 04:32N 33°46' W 118°14'0 0.0
2014-Dec-18 03:32N 33°46' W 118°14'0 0.0
2014-Dec-18 02:32N 33°46' W 118°14'0 0.0
2014-Dec-18 01:32N 33°46' W 118°14'0 0.0
2014-Dec-18 00:32N 33°46' W 118°14'0 0.0
2014-Dec-17 23:33N 33°46' W 118°14'2 1.8
2014-Dec-17 22:33N 33°45' W 118°13'12 5.5
2014-Dec-17 20:19N 33°33' W 118°09'9 9.8
2014-Dec-17 19:25N 33°24' W 118°05'1011.1
2014-Dec-17 18:32N 33°16' W 117°60'1110.9
2014-Dec-17 17:33N 33°06' W 117°54'1313.0
2014-Dec-17 16:33N 32°54' W 117°48'1211.7
2014-Dec-17 15:33N 32°43' W 117°46'1615.0
2014-Dec-17 14:30N 32°27' W 117°43'1313.2
2014-Dec-17 13:33N 32°15' W 117°38'  
Track history (hours):
 
Tides and Currents Weather Stations Pressure Air Temp Water Temp Dewpoint Dewpoint Depression Visibility Wind Speed Wind Dir Waves Ship Positions

MSC Poh Lin

Last reported at 2014-Dec-20 02:08 UTC. Time now 2014-Dec-20 03:44 UTC.
Position N 36°54' W 123°18'.

Length 294 m; draft 9.8 m.

Type: Ship (hazmat cat A). MMSI: 357405000.

Date/timePositionNaut miles runAvg speedWind from/ knotsBaromVisibWave heightAir tempDewpointWater temp
2014-Dec-20 02:08N 36°54' W 123°18'1017.2
2014-Dec-20 01:33N 36°45' W 123°12'19817.7
2014-Dec-19 14:21N 33°55' W 121°07'14612.3
2014-Dec-19 02:28N 33°42' W 118°11'5 5.1
2014-Dec-19 01:33N 33°46' W 118°14'0 0.2
2014-Dec-19 00:32N 33°46' W 118°14'0 0.0
2014-Dec-18 23:32N 33°46' W 118°14'0 0.0
2014-Dec-18 22:32N 33°46' W 118°14'0 0.0
2014-Dec-18 21:32N 33°46' W 118°14'0 0.0
2014-Dec-18 20:32N 33°46' W 118°14'0 0.0
2014-Dec-18 19:32N 33°46' W 118°14'0 0.0
2014-Dec-18 18:32N 33°46' W 118°14'0 0.0
2014-Dec-18 17:32N 33°46' W 118°14'0 0.0
2014-Dec-18 16:32N 33°46' W 118°14'0 0.0
2014-Dec-18 15:32N 33°46' W 118°14'0 0.0
2014-Dec-18 14:32N 33°46' W 118°14'0 0.0
2014-Dec-18 13:29N 33°46' W 118°14'0 0.0
2014-Dec-18 12:32N 33°46' W 118°14'0 0.0
2014-Dec-18 11:32N 33°46' W 118°14'0 0.0
2014-Dec-18 10:32N 33°46' W 118°14'0 0.0
2014-Dec-18 09:32N 33°46' W 118°14'0 0.0
2014-Dec-18 08:32N 33°46' W 118°14'0 0.0
2014-Dec-18 07:32N 33°46' W 118°14'0 0.0
2014-Dec-18 06:32N 33°46' W 118°14'0 0.0
2014-Dec-18 05:32N 33°46' W 118°14'0 0.0
2014-Dec-18 04:32N 33°46' W 118°14'0 0.0
2014-Dec-18 03:32N 33°46' W 118°14'0 0.0
2014-Dec-18 02:32N 33°46' W 118°14'0 0.0
2014-Dec-18 01:32N 33°46' W 118°14'0 0.0
2014-Dec-18 00:32N 33°46' W 118°14'0 0.0
2014-Dec-17 23:33N 33°46' W 118°14'2 1.8
2014-Dec-17 22:33N 33°45' W 118°13'12 5.5
2014-Dec-17 20:19N 33°33' W 118°09'9 9.8
2014-Dec-17 19:25N 33°24' W 118°05'1011.1
2014-Dec-17 18:32N 33°16' W 117°60'1110.9
2014-Dec-17 17:33N 33°06' W 117°54'1313.0
2014-Dec-17 16:33N 32°54' W 117°48'1211.7
2014-Dec-17 15:33N 32°43' W 117°46'1615.0
2014-Dec-17 14:30N 32°27' W 117°43'1313.2
2014-Dec-17 13:33N 32°15' W 117°38'  

Dump ship's entire track history